sensor_id;sensor_type;location;lat;lon;timestamp;temperature;humidity
21849;DHT22;11089;49.852;19.700;2023-02-28T00:02:43;0.00;1.00
21849;DHT22;11089;49.852;19.700;2023-02-28T00:05:44;0.00;1.00
21849;DHT22;11089;49.852;19.700;2023-02-28T00:08:45;0.00;99.90
21849;DHT22;11089;49.852;19.700;2023-02-28T00:11:46;0.00;7.70
21849;DHT22;11089;49.852;19.700;2023-02-28T00:14:47;0.00;99.90
21849;DHT22;11089;49.852;19.700;2023-02-28T00:17:48;0.00;99.90
21849;DHT22;11089;49.852;19.700;2023-02-28T00:20:49;0.00;99.90
21849;DHT22;11089;49.852;19.700;2023-02-28T00:23:50;0.00;99.90
21849;DHT22;11089;49.852;19.700;2023-02-28T00:26:51;-0.20;99.90
21849;DHT22;11089;49.852;19.700;2023-02-28T00:29:52;-0.10;99.90
21849;DHT22;11089;49.852;19.700;2023-02-28T00:32:54;-0.20;99.90
21849;DHT22;11089;49.852;19.700;2023-02-28T00:36:10;-0.10;96.90
21849;DHT22;11089;49.852;19.700;2023-02-28T00:39:11;-0.20;99.90
21849;DHT22;11089;49.852;19.700;2023-02-28T00:42:12;-0.10;99.90
21849;DHT22;11089;49.852;19.700;2023-02-28T00:45:13;-0.10;99.90
21849;DHT22;11089;49.852;19.700;2023-02-28T00:48:14;-0.10;53.50
21849;DHT22;11089;49.852;19.700;2023-02-28T00:51:16;-0.20;99.90
21849;DHT22;11089;49.852;19.700;2023-02-28T00:54:17;-0.10;99.90
21849;DHT22;11089;49.852;19.700;2023-02-28T00:57:18;-0.20;99.90
21849;DHT22;11089;49.852;19.700;2023-02-28T01:00:19;-0.30;99.90
21849;DHT22;11089;49.852;19.700;2023-02-28T01:03:21;-0.20;99.90
21849;DHT22;11089;49.852;19.700;2023-02-28T01:06:23;-0.20;99.90
21849;DHT22;11089;49.852;19.700;2023-02-28T01:09:24;-0.20;99.90
21849;DHT22;11089;49.852;19.700;2023-02-28T01:12:25;-0.30;99.90
21849;DHT22;11089;49.852;19.700;2023-02-28T01:15:26;-0.30;99.90
21849;DHT22;11089;49.852;19.700;2023-02-28T01:18:26;-0.30;99.90
21849;DHT22;11089;49.852;19.700;2023-02-28T01:21:27;-0.30;99.90
21849;DHT22;11089;49.852;19.700;2023-02-28T01:24:30;-0.40;99.90
21849;DHT22;11089;49.852;19.700;2023-02-28T01:27:31;-0.40;99.90
21849;DHT22;11089;49.852;19.700;2023-02-28T01:30:32;-0.40;99.90
21849;DHT22;11089;49.852;19.700;2023-02-28T01:33:33;-0.60;1.00
21849;DHT22;11089;49.852;19.700;2023-02-28T01:36:34;-0.60;1.00
21849;DHT22;11089;49.852;19.700;2023-02-28T01:39:36;-0.70;1.00
21849;DHT22;11089;49.852;19.700;2023-02-28T01:42:37;-0.70;1.00
21849;DHT22;11089;49.852;19.700;2023-02-28T01:45:38;-0.80;1.00
21849;DHT22;11089;49.852;19.700;2023-02-28T01:48:46;-0.90;1.00
21849;DHT22;11089;49.852;19.700;2023-02-28T01:51:50;-0.80;1.00
21849;DHT22;11089;49.852;19.700;2023-02-28T01:54:55;-0.70;1.00
21849;DHT22;11089;49.852;19.700;2023-02-28T01:57:59;-0.80;1.00
21849;DHT22;11089;49.852;19.700;2023-02-28T02:01:01;-0.80;1.00
21849;DHT22;11089;49.852;19.700;2023-02-28T02:04:04;-0.90;1.00
21849;DHT22;11089;49.852;19.700;2023-02-28T02:07:05;-1.00;1.00
21849;DHT22;11089;49.852;19.700;2023-02-28T02:20:16;-1.20;1.00
21849;DHT22;11089;49.852;19.700;2023-02-28T02:34:01;-1.20;99.90
21849;DHT22;11089;49.852;19.700;2023-02-28T02:37:14;-1.10;99.90
21849;DHT22;11089;49.852;19.700;2023-02-28T02:40:20;-1.20;99.90
21849;DHT22;11089;49.852;19.700;2023-02-28T02:43:31;-1.20;99.90
21849;DHT22;11089;49.852;19.700;2023-02-28T02:46:36;-1.30;99.90
21849;DHT22;11089;49.852;19.700;2023-02-28T02:49:40;-1.30;1.00
21849;DHT22;11089;49.852;19.700;2023-02-28T02:52:48;-1.40;1.00
21849;DHT22;11089;49.852;19.700;2023-02-28T02:55:53;-1.40;1.00
21849;DHT22;11089;49.852;19.700;2023-02-28T02:59:02;-1.50;1.00
21849;DHT22;11089;49.852;19.700;2023-02-28T03:02:07;-1.60;1.00
21849;DHT22;11089;49.852;19.700;2023-02-28T03:05:59;-1.60;1.00
21849;DHT22;11089;49.852;19.700;2023-02-28T03:08:40;-1.70;99.90
21849;DHT22;11089;49.852;19.700;2023-02-28T03:11:41;-1.70;44.20
21849;DHT22;11089;49.852;19.700;2023-02-28T03:15:07;-1.80;99.90
21849;DHT22;11089;49.852;19.700;2023-02-28T03:18:43;-1.80;1.00
21849;DHT22;11089;49.852;19.700;2023-02-28T03:21:56;-1.90;1.00
21849;DHT22;11089;49.852;19.700;2023-02-28T03:35:06;-1.90;1.00
21849;DHT22;11089;49.852;19.700;2023-02-28T03:38:17;-1.90;99.90
21849;DHT22;11089;49.852;19.700;2023-02-28T03:41:26;-2.00;99.90
21849;DHT22;11089;49.852;19.700;2023-02-28T03:44:32;-1.90;1.00
21849;DHT22;11089;49.852;19.700;2023-02-28T03:47:46;-2.00;99.90
21849;DHT22;11089;49.852;19.700;2023-02-28T03:50:53;-1.90;99.90
21849;DHT22;11089;49.852;19.700;2023-02-28T03:53:58;-2.00;99.90
21849;DHT22;11089;49.852;19.700;2023-02-28T03:57:11;-2.00;99.90
21849;DHT22;11089;49.852;19.700;2023-02-28T04:00:18;-2.00;66.70
21849;DHT22;11089;49.852;19.700;2023-02-28T04:03:20;-2.00;1.00
21849;DHT22;11089;49.852;19.700;2023-02-28T04:06:22;-2.00;99.90
21849;DHT22;11089;49.852;19.700;2023-02-28T04:09:24;-2.00;99.90
21849;DHT22;11089;49.852;19.700;2023-02-28T04:12:25;-2.00;99.90
21849;DHT22;11089;49.852;19.700;2023-02-28T04:15:26;-2.00;1.00
21849;DHT22;11089;49.852;19.700;2023-02-28T04:18:27;-2.00;1.00
21849;DHT22;11089;49.852;19.700;2023-02-28T04:21:29;-2.00;1.00
21849;DHT22;11089;49.852;19.700;2023-02-28T04:24:31;-2.00;1.00
21849;DHT22;11089;49.852;19.700;2023-02-28T04:27:32;-2.10;1.00
21849;DHT22;11089;49.852;19.700;2023-02-28T04:30:33;-2.10;99.90
21849;DHT22;11089;49.852;19.700;2023-02-28T04:33:33;-2.10;99.90
21849;DHT22;11089;49.852;19.700;2023-02-28T04:36:34;-2.10;99.90
21849;DHT22;11089;49.852;19.700;2023-02-28T04:39:36;-2.20;1.00
21849;DHT22;11089;49.852;19.700;2023-02-28T04:42:37;-2.20;1.00
21849;DHT22;11089;49.852;19.700;2023-02-28T04:45:38;-2.20;1.00
21849;DHT22;11089;49.852;19.700;2023-02-28T04:48:40;-2.20;14.70
21849;DHT22;11089;49.852;19.700;2023-02-28T04:51:41;-2.20;1.00
21849;DHT22;11089;49.852;19.700;2023-02-28T04:54:42;-2.20;1.00
21849;DHT22;11089;49.852;19.700;2023-02-28T04:57:43;-2.40;1.00
21849;DHT22;11089;49.852;19.700;2023-02-28T05:00:44;-2.40;99.90
21849;DHT22;11089;49.852;19.700;2023-02-28T05:03:45;-2.50;99.90
21849;DHT22;11089;49.852;19.700;2023-02-28T05:06:46;-2.60;99.90
21849;DHT22;11089;49.852;19.700;2023-02-28T05:09:47;-2.60;1.00
21849;DHT22;11089;49.852;19.700;2023-02-28T05:12:48;-2.80;99.90
21849;DHT22;11089;49.852;19.700;2023-02-28T05:15:49;-2.90;1.00
21849;DHT22;11089;49.852;19.700;2023-02-28T05:18:50;-2.90;32.10
21849;DHT22;11089;49.852;19.700;2023-02-28T05:21:53;-3.10;1.00
21849;DHT22;11089;49.852;19.700;2023-02-28T05:24:54;-3.10;38.60
21849;DHT22;11089;49.852;19.700;2023-02-28T05:27:55;-3.00;1.00
21849;DHT22;11089;49.852;19.700;2023-02-28T05:30:56;-3.10;1.00
21849;DHT22;11089;49.852;19.700;2023-02-28T05:33:57;-3.00;1.00
21849;DHT22;11089;49.852;19.700;2023-02-28T05:36:58;-3.10;99.90
21849;DHT22;11089;49.852;19.700;2023-02-28T05:39:59;-3.10;1.00
21849;DHT22;11089;49.852;19.700;2023-02-28T05:43:00;-3.10;1.00
21849;DHT22;11089;49.852;19.700;2023-02-28T05:46:05;-3.20;1.00
21849;DHT22;11089;49.852;19.700;2023-02-28T05:49:06;-3.30;40.20
21849;DHT22;11089;49.852;19.700;2023-02-28T05:52:07;-3.30;99.90
21849;DHT22;11089;49.852;19.700;2023-02-28T05:55:08;-3.30;1.00
21849;DHT22;11089;49.852;19.700;2023-02-28T05:58:10;-3.20;1.00
21849;DHT22;11089;49.852;19.700;2023-02-28T06:04:37;-3.20;99.90
21849;DHT22;11089;49.852;19.700;2023-02-28T06:07:38;-3.10;47.40
21849;DHT22;11089;49.852;19.700;2023-02-28T06:10:39;-3.00;1.00
21849;DHT22;11089;49.852;19.700;2023-02-28T06:13:40;-3.20;1.00
21849;DHT22;11089;49.852;19.700;2023-02-28T06:16:41;-3.10;1.00
21849;DHT22;11089;49.852;19.700;2023-02-28T06:19:42;-3.10;1.00
21849;DHT22;11089;49.852;19.700;2023-02-28T06:22:43;-3.00;99.90
21849;DHT22;11089;49.852;19.700;2023-02-28T06:25:47;-3.00;1.00
21849;DHT22;11089;49.852;19.700;2023-02-28T06:28:48;-3.00;99.90
21849;DHT22;11089;49.852;19.700;2023-02-28T06:31:49;-2.90;8.60
21849;DHT22;11089;49.852;19.700;2023-02-28T06:34:50;-2.80;95.20
21849;DHT22;11089;49.852;19.700;2023-02-28T06:37:51;-2.80;1.00
21849;DHT22;11089;49.852;19.700;2023-02-28T06:40:56;-2.70;1.00
21849;DHT22;11089;49.852;19.700;2023-02-28T06:43:58;-2.60;99.90
21849;DHT22;11089;49.852;19.700;2023-02-28T06:46:58;-2.50;99.90
21849;DHT22;11089;49.852;19.700;2023-02-28T06:49:59;-2.30;1.00
21849;DHT22;11089;49.852;19.700;2023-02-28T06:53:02;-2.20;1.00
21849;DHT22;11089;49.852;19.700;2023-02-28T06:56:07;-2.20;99.90
21849;DHT22;11089;49.852;19.700;2023-02-28T06:59:08;-2.10;1.00
21849;DHT22;11089;49.852;19.700;2023-02-28T07:02:09;-2.00;99.90
21849;DHT22;11089;49.852;19.700;2023-02-28T07:05:10;-1.90;1.00
21849;DHT22;11089;49.852;19.700;2023-02-28T07:08:11;-1.80;1.00
21849;DHT22;11089;49.852;19.700;2023-02-28T07:11:12;-1.70;82.30
21849;DHT22;11089;49.852;19.700;2023-02-28T07:14:13;-1.70;1.00
21849;DHT22;11089;49.852;19.700;2023-02-28T07:17:14;-1.60;99.90
21849;DHT22;11089;49.852;19.700;2023-02-28T07:20:15;-1.50;1.00
21849;DHT22;11089;49.852;19.700;2023-02-28T07:23:16;-1.50;1.00
21849;DHT22;11089;49.852;19.700;2023-02-28T07:26:19;-1.30;1.00
21849;DHT22;11089;49.852;19.700;2023-02-28T07:29:20;-1.20;99.90
21849;DHT22;11089;49.852;19.700;2023-02-28T07:32:21;-1.20;39.90
21849;DHT22;11089;49.852;19.700;2023-02-28T07:35:23;-1.20;99.90
21849;DHT22;11089;49.852;19.700;2023-02-28T07:38:24;-1.00;40.40
21849;DHT22;11089;49.852;19.700;2023-02-28T07:41:25;-0.80;1.00
21849;DHT22;11089;49.852;19.700;2023-02-28T07:44:28;-0.60;1.00
21849;DHT22;11089;49.852;19.700;2023-02-28T07:47:30;-0.20;99.90
21849;DHT22;11089;49.852;19.700;2023-02-28T07:50:31;0.20;1.00
21849;DHT22;11089;49.852;19.700;2023-02-28T07:53:32;0.50;95.50
21849;DHT22;11089;49.852;19.700;2023-02-28T07:56:33;0.70;1.00
21849;DHT22;11089;49.852;19.700;2023-02-28T07:59:34;0.80;99.90
21849;DHT22;11089;49.852;19.700;2023-02-28T08:02:35;1.10;99.90
21849;DHT22;11089;49.852;19.700;2023-02-28T08:05:39;1.50;1.00
21849;DHT22;11089;49.852;19.700;2023-02-28T08:08:40;1.90;99.90
21849;DHT22;11089;49.852;19.700;2023-02-28T08:11:41;2.40;99.90
21849;DHT22;11089;49.852;19.700;2023-02-28T08:14:42;2.90;99.90
21849;DHT22;11089;49.852;19.700;2023-02-28T08:17:43;3.50;1.00
21849;DHT22;11089;49.852;19.700;2023-02-28T08:20:44;6.20;1.00
21849;DHT22;11089;49.852;19.700;2023-02-28T08:23:49;6.20;1.00
21849;DHT22;11089;49.852;19.700;2023-02-28T08:26:50;6.00;1.00
21849;DHT22;11089;49.852;19.700;2023-02-28T08:29:51;5.50;1.00
21849;DHT22;11089;49.852;19.700;2023-02-28T08:32:52;5.70;1.00
21849;DHT22;11089;49.852;19.700;2023-02-28T08:35:56;6.40;1.00
21849;DHT22;11089;49.852;19.700;2023-02-28T08:38:57;7.50;1.00
21849;DHT22;11089;49.852;19.700;2023-02-28T08:42:00;6.80;1.00
21849;DHT22;11089;49.852;19.700;2023-02-28T08:45:01;8.20;1.00
21849;DHT22;11089;49.852;19.700;2023-02-28T08:48:02;8.30;1.00
21849;DHT22;11089;49.852;19.700;2023-02-28T08:51:08;9.00;1.00
21849;DHT22;11089;49.852;19.700;2023-02-28T08:54:09;10.60;99.90
21849;DHT22;11089;49.852;19.700;2023-02-28T08:57:13;10.60;99.90
21849;DHT22;11089;49.852;19.700;2023-02-28T09:00:14;12.50;99.90
21849;DHT22;11089;49.852;19.700;2023-02-28T09:03:15;12.30;99.90
21849;DHT22;11089;49.852;19.700;2023-02-28T09:06:17;11.80;99.90
21849;DHT22;11089;49.852;19.700;2023-02-28T09:09:18;12.60;99.90
21849;DHT22;11089;49.852;19.700;2023-02-28T09:12:24;13.80;99.90
21849;DHT22;11089;49.852;19.700;2023-02-28T09:15:25;11.60;99.90
21849;DHT22;11089;49.852;19.700;2023-02-28T09:18:26;14.60;99.90
21849;DHT22;11089;49.852;19.700;2023-02-28T09:21:27;15.90;99.90
21849;DHT22;11089;49.852;19.700;2023-02-28T09:24:28;16.10;99.90
21849;DHT22;11089;49.852;19.700;2023-02-28T09:27:32;16.60;99.90
21849;DHT22;11089;49.852;19.700;2023-02-28T09:30:33;18.90;99.90
21849;DHT22;11089;49.852;19.700;2023-02-28T09:33:34;20.30;99.90
21849;DHT22;11089;49.852;19.700;2023-02-28T09:36:35;18.50;99.90
21849;DHT22;11089;49.852;19.700;2023-02-28T09:39:37;18.80;99.90
21849;DHT22;11089;49.852;19.700;2023-02-28T09:42:39;20.70;99.90
21849;DHT22;11089;49.852;19.700;2023-02-28T09:45:42;17.20;99.90
21849;DHT22;11089;49.852;19.700;2023-02-28T09:48:46;17.90;99.90
21849;DHT22;11089;49.852;19.700;2023-02-28T09:51:57;17.60;99.90
21849;DHT22;11089;49.852;19.700;2023-02-28T10:05:00;21.30;99.90
21849;DHT22;11089;49.852;19.700;2023-02-28T10:08:15;22.60;99.90
21849;DHT22;11089;49.852;19.700;2023-02-28T10:11:18;23.40;99.90
21849;DHT22;11089;49.852;19.700;2023-02-28T10:14:23;20.20;99.90
21849;DHT22;11089;49.852;19.700;2023-02-28T10:17:27;17.40;99.90
21849;DHT22;11089;49.852;19.700;2023-02-28T10:20:33;19.10;99.90
21849;DHT22;11089;49.852;19.700;2023-02-28T10:23:37;19.90;99.90
21849;DHT22;11089;49.852;19.700;2023-02-28T10:26:38;22.60;99.90
21849;DHT22;11089;49.852;19.700;2023-02-28T10:29:43;23.40;99.90
21849;DHT22;11089;49.852;19.700;2023-02-28T10:32:51;21.20;99.90
21849;DHT22;11089;49.852;19.700;2023-02-28T10:35:54;23.10;99.90
21849;DHT22;11089;49.852;19.700;2023-02-28T10:38:55;25.10;99.90
21849;DHT22;11089;49.852;19.700;2023-02-28T10:41:56;26.10;99.90
21849;DHT22;11089;49.852;19.700;2023-02-28T10:45:15;22.30;99.90
21849;DHT22;11089;49.852;19.700;2023-02-28T10:51:19;22.60;99.90
21849;DHT22;11089;49.852;19.700;2023-02-28T10:54:24;25.20;99.90
21849;DHT22;11089;49.852;19.700;2023-02-28T10:57:30;27.00;99.90
21849;DHT22;11089;49.852;19.700;2023-02-28T11:00:34;26.30;99.90
21849;DHT22;11089;49.852;19.700;2023-02-28T11:03:35;22.40;99.90
21849;DHT22;11089;49.852;19.700;2023-02-28T11:06:36;25.00;99.90
21849;DHT22;11089;49.852;19.700;2023-02-28T11:09:41;25.20;99.90
21849;DHT22;11089;49.852;19.700;2023-02-28T11:12:44;27.20;99.90
21849;DHT22;11089;49.852;19.700;2023-02-28T11:15:55;26.70;99.90
21849;DHT22;11089;49.852;19.700;2023-02-28T11:18:57;26.20;99.90
21849;DHT22;11089;49.852;19.700;2023-02-28T11:22:02;25.00;99.90
21849;DHT22;11089;49.852;19.700;2023-02-28T11:25:13;25.60;99.90
21849;DHT22;11089;49.852;19.700;2023-02-28T11:28:32;26.50;99.90
21849;DHT22;11089;49.852;19.700;2023-02-28T11:31:34;21.80;99.90
21849;DHT22;11089;49.852;19.700;2023-02-28T11:34:35;17.00;99.90
21849;DHT22;11089;49.852;19.700;2023-02-28T11:37:39;17.50;99.90
21849;DHT22;11089;49.852;19.700;2023-02-28T11:41:03;15.70;99.90
21849;DHT22;11089;49.852;19.700;2023-02-28T11:50:54;15.00;99.90
21849;DHT22;11089;49.852;19.700;2023-02-28T11:54:05;14.80;99.90
21849;DHT22;11089;49.852;19.700;2023-02-28T12:00:32;16.20;99.90
21849;DHT22;11089;49.852;19.700;2023-02-28T12:06:45;18.60;99.90
21849;DHT22;11089;49.852;19.700;2023-02-28T12:16:57;24.50;99.90
21849;DHT22;11089;49.852;19.700;2023-02-28T12:26:50;23.60;99.90
21849;DHT22;11089;49.852;19.700;2023-02-28T12:36:09;23.00;99.90
21849;DHT22;11089;49.852;19.700;2023-02-28T12:42:32;21.90;99.90
21849;DHT22;11089;49.852;19.700;2023-02-28T12:45:41;21.30;99.90
21849;DHT22;11089;49.852;19.700;2023-02-28T12:48:47;22.30;99.90
21849;DHT22;11089;49.852;19.700;2023-02-28T12:51:50;21.10;99.90
21849;DHT22;11089;49.852;19.700;2023-02-28T12:58:15;20.10;99.90
21849;DHT22;11089;49.852;19.700;2023-02-28T13:05:06;18.40;99.90
21849;DHT22;11089;49.852;19.700;2023-02-28T13:11:34;13.60;99.90
21849;DHT22;11089;49.852;19.700;2023-02-28T13:14:39;13.80;99.90
21849;DHT22;11089;49.852;19.700;2023-02-28T13:17:40;13.30;99.90
21849;DHT22;11089;49.852;19.700;2023-02-28T13:20:48;11.30;99.90
21849;DHT22;11089;49.852;19.700;2023-02-28T13:30:49;8.70;99.90
21849;DHT22;11089;49.852;19.700;2023-02-28T13:33:36;8.60;99.90
21849;DHT22;11089;49.852;19.700;2023-02-28T13:40:32;9.10;99.90
21849;DHT22;11089;49.852;19.700;2023-02-28T13:53:35;8.80;99.90
21849;DHT22;11089;49.852;19.700;2023-02-28T13:56:51;8.80;99.90
21849;DHT22;11089;49.852;19.700;2023-02-28T14:00:17;8.80;99.90
21849;DHT22;11089;49.852;19.700;2023-02-28T14:06:33;8.30;99.90
21849;DHT22;11089;49.852;19.700;2023-02-28T14:09:41;8.10;99.90
21849;DHT22;11089;49.852;19.700;2023-02-28T14:16:00;8.40;99.90
21849;DHT22;11089;49.852;19.700;2023-02-28T14:19:12;8.60;99.90
21849;DHT22;11089;49.852;19.700;2023-02-28T14:39:00;7.10;99.90
21849;DHT22;11089;49.852;19.700;2023-02-28T14:42:02;6.80;99.90
21849;DHT22;11089;49.852;19.700;2023-02-28T14:45:05;6.90;99.90
21849;DHT22;11089;49.852;19.700;2023-02-28T14:48:09;6.90;99.90
21849;DHT22;11089;49.852;19.700;2023-02-28T14:51:10;7.00;99.90
21849;DHT22;11089;49.852;19.700;2023-02-28T14:54:15;6.70;99.90
21849;DHT22;11089;49.852;19.700;2023-02-28T14:57:26;6.50;99.90
21849;DHT22;11089;49.852;19.700;2023-02-28T15:00:30;6.40;99.90
21849;DHT22;11089;49.852;19.700;2023-02-28T15:03:33;6.30;99.90
21849;DHT22;11089;49.852;19.700;2023-02-28T15:06:34;6.30;99.90
21849;DHT22;11089;49.852;19.700;2023-02-28T15:09:35;6.10;99.90
21849;DHT22;11089;49.852;19.700;2023-02-28T15:12:37;6.10;99.90
21849;DHT22;11089;49.852;19.700;2023-02-28T15:15:55;6.00;99.90
21849;DHT22;11089;49.852;19.700;2023-02-28T15:19:02;6.10;99.90
21849;DHT22;11089;49.852;19.700;2023-02-28T15:22:07;6.20;99.90
21849;DHT22;11089;49.852;19.700;2023-02-28T15:25:15;5.90;99.90
21849;DHT22;11089;49.852;19.700;2023-02-28T15:28:19;5.50;99.90
21849;DHT22;11089;49.852;19.700;2023-02-28T15:31:33;5.40;99.90
21849;DHT22;11089;49.852;19.700;2023-02-28T15:34:41;5.40;99.90
21849;DHT22;11089;49.852;19.700;2023-02-28T15:40:57;5.10;99.90
21849;DHT22;11089;49.852;19.700;2023-02-28T15:47:30;4.80;99.90
21849;DHT22;11089;49.852;19.700;2023-02-28T15:50:32;4.80;99.90
21849;DHT22;11089;49.852;19.700;2023-02-28T15:53:37;4.60;99.90
21849;DHT22;11089;49.852;19.700;2023-02-28T15:56:43;4.40;99.90
21849;DHT22;11089;49.852;19.700;2023-02-28T15:59:54;4.40;99.90
21849;DHT22;11089;49.852;19.700;2023-02-28T16:02:56;4.20;99.90
21849;DHT22;11089;49.852;19.700;2023-02-28T16:09:17;3.80;99.90
21849;DHT22;11089;49.852;19.700;2023-02-28T16:12:20;3.70;99.90
21849;DHT22;11089;49.852;19.700;2023-02-28T16:15:27;3.60;99.90
21849;DHT22;11089;49.852;19.700;2023-02-28T16:18:29;3.40;99.90
21849;DHT22;11089;49.852;19.700;2023-02-28T16:21:30;3.30;99.90
21849;DHT22;11089;49.852;19.700;2023-02-28T16:24:31;3.10;99.90
21849;DHT22;11089;49.852;19.700;2023-02-28T16:27:36;3.10;99.90
21849;DHT22;11089;49.852;19.700;2023-02-28T16:30:38;2.90;99.90
21849;DHT22;11089;49.852;19.700;2023-02-28T16:33:39;2.70;99.90
21849;DHT22;11089;49.852;19.700;2023-02-28T16:36:40;2.60;99.90
21849;DHT22;11089;49.852;19.700;2023-02-28T16:39:42;2.50;99.90
21849;DHT22;11089;49.852;19.700;2023-02-28T16:42:45;2.30;99.90
21849;DHT22;11089;49.852;19.700;2023-02-28T16:45:46;2.20;99.90
21849;DHT22;11089;49.852;19.700;2023-02-28T16:48:47;2.20;99.90
21849;DHT22;11089;49.852;19.700;2023-02-28T16:51:52;2.00;99.90
21849;DHT22;11089;49.852;19.700;2023-02-28T16:54:52;2.00;99.90
21849;DHT22;11089;49.852;19.700;2023-02-28T16:57:57;1.90;99.90
21849;DHT22;11089;49.852;19.700;2023-02-28T17:00:58;1.90;99.90
21849;DHT22;11089;49.852;19.700;2023-02-28T17:03:59;1.90;99.90
21849;DHT22;11089;49.852;19.700;2023-02-28T17:07:00;1.80;99.90
21849;DHT22;11089;49.852;19.700;2023-02-28T17:10:01;1.70;99.90
21849;DHT22;11089;49.852;19.700;2023-02-28T17:13:09;1.80;99.90
21849;DHT22;11089;49.852;19.700;2023-02-28T17:16:30;1.70;99.90
21849;DHT22;11089;49.852;19.700;2023-02-28T17:19:31;1.50;99.90
21849;DHT22;11089;49.852;19.700;2023-02-28T17:22:34;1.40;99.90
21849;DHT22;11089;49.852;19.700;2023-02-28T17:25:35;1.40;99.90
21849;DHT22;11089;49.852;19.700;2023-02-28T17:28:35;1.30;99.90
21849;DHT22;11089;49.852;19.700;2023-02-28T17:31:36;1.20;99.90
21849;DHT22;11089;49.852;19.700;2023-02-28T17:34:39;1.10;99.90
21849;DHT22;11089;49.852;19.700;2023-02-28T17:37:40;1.20;99.90
21849;DHT22;11089;49.852;19.700;2023-02-28T17:40:41;1.10;99.90
21849;DHT22;11089;49.852;19.700;2023-02-28T17:43:42;1.00;99.90
21849;DHT22;11089;49.852;19.700;2023-02-28T17:46:44;1.10;99.90
21849;DHT22;11089;49.852;19.700;2023-02-28T17:49:45;1.10;99.90
21849;DHT22;11089;49.852;19.700;2023-02-28T17:52:46;1.10;99.90
21849;DHT22;11089;49.852;19.700;2023-02-28T17:55:47;0.90;99.90
21849;DHT22;11089;49.852;19.700;2023-02-28T17:58:49;0.80;1.00
21849;DHT22;11089;49.852;19.700;2023-02-28T18:01:50;0.90;1.00
21849;DHT22;11089;49.852;19.700;2023-02-28T18:04:51;0.80;1.00
21849;DHT22;11089;49.852;19.700;2023-02-28T18:07:52;0.60;1.00
21849;DHT22;11089;49.852;19.700;2023-02-28T18:10:53;0.50;1.00
21849;DHT22;11089;49.852;19.700;2023-02-28T18:13:54;0.40;1.00
21849;DHT22;11089;49.852;19.700;2023-02-28T18:16:57;0.30;1.00
21849;DHT22;11089;49.852;19.700;2023-02-28T18:19:58;0.20;1.00
21849;DHT22;11089;49.852;19.700;2023-02-28T18:23:00;0.20;1.00
21849;DHT22;11089;49.852;19.700;2023-02-28T18:26:02;0.20;1.00
21849;DHT22;11089;49.852;19.700;2023-02-28T18:29:07;0.10;1.00
21849;DHT22;11089;49.852;19.700;2023-02-28T18:32:08;0.10;1.00
21849;DHT22;11089;49.852;19.700;2023-02-28T18:35:09;0.00;1.00
21849;DHT22;11089;49.852;19.700;2023-02-28T18:38:16;0.00;1.00
21849;DHT22;11089;49.852;19.700;2023-02-28T18:41:20;0.00;1.00
21849;DHT22;11089;49.852;19.700;2023-02-28T18:44:21;-0.10;1.00
21849;DHT22;11089;49.852;19.700;2023-02-28T18:47:22;-0.10;1.00
21849;DHT22;11089;49.852;19.700;2023-02-28T18:50:23;0.00;1.00
21849;DHT22;11089;49.852;19.700;2023-02-28T18:53:24;0.00;1.50
21849;DHT22;11089;49.852;19.700;2023-02-28T18:56:25;-0.30;99.90
21849;DHT22;11089;49.852;19.700;2023-02-28T18:59:26;-0.20;99.90
21849;DHT22;11089;49.852;19.700;2023-02-28T19:02:27;-0.30;99.90
21849;DHT22;11089;49.852;19.700;2023-02-28T19:05:28;-0.30;99.90
21849;DHT22;11089;49.852;19.700;2023-02-28T19:08:32;-0.30;99.90
21849;DHT22;11089;49.852;19.700;2023-02-28T19:11:34;-0.20;99.90
21849;DHT22;11089;49.852;19.700;2023-02-28T19:14:34;-0.40;99.90
21849;DHT22;11089;49.852;19.700;2023-02-28T19:17:36;-0.40;99.90
21849;DHT22;11089;49.852;19.700;2023-02-28T19:20:37;-0.30;99.90
21849;DHT22;11089;49.852;19.700;2023-02-28T19:23:38;-0.40;99.90
21849;DHT22;11089;49.852;19.700;2023-02-28T19:26:40;-0.40;1.00
21849;DHT22;11089;49.852;19.700;2023-02-28T19:29:41;-0.50;1.00
21849;DHT22;11089;49.852;19.700;2023-02-28T19:32:42;-0.50;1.00
21849;DHT22;11089;49.852;19.700;2023-02-28T19:35:43;-0.60;1.00
21849;DHT22;11089;49.852;19.700;2023-02-28T19:38:44;-0.70;1.00
21849;DHT22;11089;49.852;19.700;2023-02-28T19:41:45;-0.60;1.00
21849;DHT22;11089;49.852;19.700;2023-02-28T19:44:46;-0.70;1.00
21849;DHT22;11089;49.852;19.700;2023-02-28T19:47:47;-0.70;1.00
21849;DHT22;11089;49.852;19.700;2023-02-28T19:50:48;-0.70;1.00
21849;DHT22;11089;49.852;19.700;2023-02-28T19:53:49;-0.80;1.00
21849;DHT22;11089;49.852;19.700;2023-02-28T19:56:50;-0.80;1.00
21849;DHT22;11089;49.852;19.700;2023-02-28T19:59:51;-0.70;1.00
21849;DHT22;11089;49.852;19.700;2023-02-28T20:02:52;-0.80;1.00
21849;DHT22;11089;49.852;19.700;2023-02-28T20:06:01;-0.80;1.00
21849;DHT22;11089;49.852;19.700;2023-02-28T20:09:03;-0.80;1.00
21849;DHT22;11089;49.852;19.700;2023-02-28T20:12:04;-0.90;1.00
21849;DHT22;11089;49.852;19.700;2023-02-28T20:15:05;-1.00;99.90
21849;DHT22;11089;49.852;19.700;2023-02-28T20:18:06;-1.00;99.90
21849;DHT22;11089;49.852;19.700;2023-02-28T20:21:08;-1.10;1.00
21849;DHT22;11089;49.852;19.700;2023-02-28T20:24:10;-1.10;1.00
21849;DHT22;11089;49.852;19.700;2023-02-28T20:27:11;-1.10;1.00
21849;DHT22;11089;49.852;19.700;2023-02-28T20:30:12;-1.20;1.00
21849;DHT22;11089;49.852;19.700;2023-02-28T20:33:17;-1.30;1.00
21849;DHT22;11089;49.852;19.700;2023-02-28T20:36:19;-1.20;1.00
21849;DHT22;11089;49.852;19.700;2023-02-28T20:39:21;-1.30;1.00
21849;DHT22;11089;49.852;19.700;2023-02-28T20:42:22;-1.40;1.00
21849;DHT22;11089;49.852;19.700;2023-02-28T20:45:22;-1.30;1.00
21849;DHT22;11089;49.852;19.700;2023-02-28T20:48:24;-1.50;99.90
21849;DHT22;11089;49.852;19.700;2023-02-28T20:51:25;-1.50;99.90
21849;DHT22;11089;49.852;19.700;2023-02-28T20:54:26;-1.40;99.90
21849;DHT22;11089;49.852;19.700;2023-02-28T20:57:29;-1.50;99.90
21849;DHT22;11089;49.852;19.700;2023-02-28T21:00:30;-1.50;1.00
21849;DHT22;11089;49.852;19.700;2023-02-28T21:03:31;-1.40;1.00
21849;DHT22;11089;49.852;19.700;2023-02-28T21:06:36;-1.40;1.00
21849;DHT22;11089;49.852;19.700;2023-02-28T21:09:37;-1.30;1.00
21849;DHT22;11089;49.852;19.700;2023-02-28T21:12:38;-1.40;1.00
21849;DHT22;11089;49.852;19.700;2023-02-28T21:15:39;-1.30;99.90
21849;DHT22;11089;49.852;19.700;2023-02-28T21:18:40;-1.30;1.00
21849;DHT22;11089;49.852;19.700;2023-02-28T21:21:43;-1.40;31.90
21849;DHT22;11089;49.852;19.700;2023-02-28T21:24:44;-1.40;1.00
21849;DHT22;11089;49.852;19.700;2023-02-28T21:27:45;-1.40;1.00
21849;DHT22;11089;49.852;19.700;2023-02-28T21:30:47;-1.30;1.00
21849;DHT22;11089;49.852;19.700;2023-02-28T21:33:48;-1.20;99.90
21849;DHT22;11089;49.852;19.700;2023-02-28T21:36:51;-1.30;1.00
21849;DHT22;11089;49.852;19.700;2023-02-28T21:39:53;-1.30;1.00